Kezdőlap
METAR-TAF:

METAR-TAF

Repülőterek :

Tozeur, Tunézia

földrajzi szélesség: 33-55N, földrajzi hosszúság: 008-06E, magasság: 87 m

Jelenlegi meteorológiai megfigyelések

A jelentés 27 perccel ezelõtt készült, 23:00 UTC
Keleti szél 17 kt
Hőmérséklet 30°C
Páratartalom 27%
Légköri nyomás 1014 hPa
Látótávolság: 5000 m
Kevés felhő 3300 lábon

METAR: DTTZ 172300Z 10017KT 5000 FEW033 30/09 Q1014

Idő: 00:27 (23:27 UTC)

Előrejelzés

A jelentés 6 órával és 27 perccel ezelõtt készült, 17:00 UTC
Az előrejelzés 17-én 18 óra UTC és 18-én 18 óra UTC között érvényes
Kelet-délkeleti szél 15 kt
Látótávolság: 5000 m
Kevés felhő 3300 lábon
18-én 10 óra UTC és 18-én 12 óra UTC között fokozatosan kialakuló
Dél-délkeleti szél 5 kt

TAF: DTTZ 171700Z 1718/1818 11015KT 5000 FEW033 BECMG 1810/1812 15005KT

Meteorológiai megfigyelések és előrejelzések több, mint 4000 repülőtéren (METAR és TAF jelentéseket).

A térképen piros és sárga pontok jelzik az elérhető meteorológiai állomásokat.

Mozgassa az egeret a pont fölött, hogy megjelenjen az állomás neve.

Azután kattintson az időjárási megfigyelések és előrejelzések megtekintéséhez.

A térkép megváltoztatása: kattintson a fekete keresztel jelölt zöld gombra ráközelítéshez, a vonallal jelölt zöld gombra távolításhoz, vagy a zöld nyilakra a szomszédos térképek eléréséhez.


METAR-TAF: